sensor_id;sensor_type;location;lat;lon;timestamp;P1;P2;P0
76330;PMS7003;65148;51.912;15.570;2023-04-15T00:02:16;18;17;11
76330;PMS7003;65148;51.912;15.570;2023-04-15T00:17:48;20;17;13
76330;PMS7003;65148;51.912;15.570;2023-04-15T00:32:51;16;15;11
76330;PMS7003;65148;51.912;15.570;2023-04-15T00:47:53;16;15;12
76330;PMS7003;65148;51.912;15.570;2023-04-15T01:02:55;12;12;9
76330;PMS7003;65148;51.912;15.570;2023-04-15T01:18:11;16;15;11
76330;PMS7003;65148;51.912;15.570;2023-04-15T01:33:14;17;16;11
76330;PMS7003;65148;51.912;15.570;2023-04-15T01:48:16;19;18;12
76330;PMS7003;65148;51.912;15.570;2023-04-15T02:03:18;23;17;12
76330;PMS7003;65148;51.912;15.570;2023-04-15T02:18:36;18;17;13
76330;PMS7003;65148;51.912;15.570;2023-04-15T02:33:37;20;17;12
76330;PMS7003;65148;51.912;15.570;2023-04-15T02:48:38;23;20;15
76330;PMS7003;65148;51.912;15.570;2023-04-15T03:03:39;22;21;15
76330;PMS7003;65148;51.912;15.570;2023-04-15T03:19:00;22;20;15
76330;PMS7003;65148;51.912;15.570;2023-04-15T03:34:01;26;23;15
76330;PMS7003;65148;51.912;15.570;2023-04-15T03:49:03;24;22;16
76330;PMS7003;65148;51.912;15.570;2023-04-15T04:04:06;26;22;15
76330;PMS7003;65148;51.912;15.570;2023-04-15T04:19:25;25;23;18
76330;PMS7003;65148;51.912;15.570;2023-04-15T04:34:26;29;24;17
76330;PMS7003;65148;51.912;15.570;2023-04-15T04:49:27;27;25;17
76330;PMS7003;65148;51.912;15.570;2023-04-15T05:04:28;30;28;18
76330;PMS7003;65148;51.912;15.570;2023-04-15T05:19:51;31;28;19
76330;PMS7003;65148;51.912;15.570;2023-04-15T05:34:53;33;27;19
76330;PMS7003;65148;51.912;15.570;2023-04-15T05:49:54;32;28;20
76330;PMS7003;65148;51.912;15.570;2023-04-15T06:04:56;33;30;19
76330;PMS7003;65148;51.912;15.570;2023-04-15T06:20:17;30;28;21
76330;PMS7003;65148;51.912;15.570;2023-04-15T06:35:18;33;32;22
76330;PMS7003;65148;51.912;15.570;2023-04-15T06:50:19;41;34;22
76330;PMS7003;65148;51.912;15.570;2023-04-15T07:05:20;24;20;16
76330;PMS7003;65148;51.912;15.570;2023-04-15T07:20:42;33;31;19
76330;PMS7003;65148;51.912;15.570;2023-04-15T07:35:43;36;34;21
76330;PMS7003;65148;51.912;15.570;2023-04-15T07:50:46;36;34;23
76330;PMS7003;65148;51.912;15.570;2023-04-15T08:05:47;36;33;21
76330;PMS7003;65148;51.912;15.570;2023-04-15T08:21:08;42;36;24
76330;PMS7003;65148;51.912;15.570;2023-04-15T08:36:10;42;38;24
76330;PMS7003;65148;51.912;15.570;2023-04-15T08:51:14;46;37;23
76330;PMS7003;65148;51.912;15.570;2023-04-15T09:06:17;40;36;23
76330;PMS7003;65148;51.912;15.570;2023-04-15T09:21:34;39;35;23
76330;PMS7003;65148;51.912;15.570;2023-04-15T09:51:51;26;24;17
76330;PMS7003;65148;51.912;15.570;2023-04-15T10:07:14;14;14;11
76330;PMS7003;65148;51.912;15.570;2023-04-15T10:22:21;38;35;25
76330;PMS7003;65148;51.912;15.570;2023-04-15T10:52:55;15;13;10
76330;PMS7003;65148;51.912;15.570;2023-04-15T11:07:57;14;12;10
76330;PMS7003;65148;51.912;15.570;2023-04-15T11:22:59;14;11;9
76330;PMS7003;65148;51.912;15.570;2023-04-15T11:38:04;17;16;11
76330;PMS7003;65148;51.912;15.570;2023-04-15T11:53:20;9;9;7
76330;PMS7003;65148;51.912;15.570;2023-04-15T12:08:22;11;10;8
76330;PMS7003;65148;51.912;15.570;2023-04-15T12:23:23;7;7;5
76330;PMS7003;65148;51.912;15.570;2023-04-15T12:38:24;8;6;5
76330;PMS7003;65148;51.912;15.570;2023-04-15T12:53:43;6;6;5
76330;PMS7003;65148;51.912;15.570;2023-04-15T13:08:44;6;6;4
76330;PMS7003;65148;51.912;15.570;2023-04-15T13:23:46;6;4;3
76330;PMS7003;65148;51.912;15.570;2023-04-15T13:38:50;6;4;2
76330;PMS7003;65148;51.912;15.570;2023-04-15T13:54:07;3;2;2
76330;PMS7003;65148;51.912;15.570;2023-04-15T14:09:08;3;2;2
76330;PMS7003;65148;51.912;15.570;2023-04-15T14:24:09;7;7;6
76330;PMS7003;65148;51.912;15.570;2023-04-15T14:39:10;0;0;0
76330;PMS7003;65148;51.912;15.570;2023-04-15T14:54:30;1;1;1
76330;PMS7003;65148;51.912;15.570;2023-04-15T15:09:31;4;3;2
76330;PMS7003;65148;51.912;15.570;2023-04-15T15:24:32;49;40;27
76330;PMS7003;65148;51.912;15.570;2023-04-15T15:39:33;18;18;13
76330;PMS7003;65148;51.912;15.570;2023-04-15T15:54:54;9;7;6
76330;PMS7003;65148;51.912;15.570;2023-04-15T16:09:55;23;21;17
76330;PMS7003;65148;51.912;15.570;2023-04-15T16:24:57;17;16;12
76330;PMS7003;65148;51.912;15.570;2023-04-15T16:39:58;22;16;10
76330;PMS7003;65148;51.912;15.570;2023-04-15T16:55:18;18;17;12
76330;PMS7003;65148;51.912;15.570;2023-04-15T17:10:19;22;16;11
76330;PMS7003;65148;51.912;15.570;2023-04-15T17:25:21;24;22;14
76330;PMS7003;65148;51.912;15.570;2023-04-15T17:40:23;15;14;10
76330;PMS7003;65148;51.912;15.570;2023-04-15T17:55:42;25;21;14
76330;PMS7003;65148;51.912;15.570;2023-04-15T18:10:44;28;25;19
76330;PMS7003;65148;51.912;15.570;2023-04-15T18:25:45;30;30;20
76330;PMS7003;65148;51.912;15.570;2023-04-15T18:40:46;15;14;7
76330;PMS7003;65148;51.912;15.570;2023-04-15T18:56:07;25;22;14
76330;PMS7003;65148;51.912;15.570;2023-04-15T19:11:09;17;16;11
76330;PMS7003;65148;51.912;15.570;2023-04-15T19:26:11;22;18;13
76330;PMS7003;65148;51.912;15.570;2023-04-15T19:41:12;61;47;32
76330;PMS7003;65148;51.912;15.570;2023-04-15T19:56:33;40;34;22
76330;PMS7003;65148;51.912;15.570;2023-04-15T20:11:34;33;30;19
76330;PMS7003;65148;51.912;15.570;2023-04-15T20:26:35;45;37;23
76330;PMS7003;65148;51.912;15.570;2023-04-15T20:45:51;52;39;26
76330;PMS7003;65148;51.912;15.570;2023-04-15T21:00:53;40;33;20
76330;PMS7003;65148;51.912;15.570;2023-04-15T21:15:54;58;47;30
76330;PMS7003;65148;51.912;15.570;2023-04-15T21:31:18;39;35;23
76330;PMS7003;65148;51.912;15.570;2023-04-15T21:46:21;30;28;18
76330;PMS7003;65148;51.912;15.570;2023-04-15T22:01:22;37;30;22
76330;PMS7003;65148;51.912;15.570;2023-04-15T22:16:27;28;26;18
76330;PMS7003;65148;51.912;15.570;2023-04-15T22:31:42;36;33;21
76330;PMS7003;65148;51.912;15.570;2023-04-15T22:46:43;36;29;22
76330;PMS7003;65148;51.912;15.570;2023-04-15T23:01:45;32;27;19
76330;PMS7003;65148;51.912;15.570;2023-04-15T23:16:46;46;39;26
76330;PMS7003;65148;51.912;15.570;2023-04-15T23:32:08;46;37;23
76330;PMS7003;65148;51.912;15.570;2023-04-15T23:47:10;34;30;18
